Time;durP1;ratioP1;P1;durP2;ratioP2;P2;SDS_P1;SDS_P2;PMS_P1;PMS_P2;Temp;Humidity;BMP_temperature;BMP_pressure;BME280_temperature;BME280_humidity;BME280_pressure;Samples;Min_cycle;Max_cycle;Signal;HPM_P1;HPM_P2
2022/10/09 00:00:10;;;;;;;31.42;17.02;;;;;;;;;;4942633;29;20401;-76
2022/10/09 00:02:59;;;;;;;25.63;13.57;;;;;;;;;;4937238;29;20047;-76
2022/10/09 00:05:44;;;;;;;28.27;18.35;;;;;;;;;;4937654;29;20048;-77
2022/10/09 00:08:30;;;;;;;26.38;18.33;;;;;;;;;;4936155;29;20043;-76
2022/10/09 00:11:22;;;;;;;30.55;18.80;;;;;;;;;;4937390;29;20394;-78
2022/10/09 00:14:08;;;;;;;38.47;22.45;;;;;;;;;;4937736;29;20414;-77
2022/10/09 00:16:54;;;;;;;31.55;19.13;;;;;;;;;;4936980;29;20048;-77
2022/10/09 00:19:39;;;;;;;36.22;21.00;;;;;;;;;;4937558;29;20051;-77
2022/10/09 00:22:25;;;;;;;31.15;20.13;;;;;;;;;;4936912;29;20430;-77
2022/10/09 00:25:11;;;;;;;41.80;24.70;;;;;;;;;;4943298;29;20039;-76
2022/10/09 00:27:57;;;;;;;45.58;24.48;;;;;;;;;;4937002;29;20048;-76
2022/10/09 00:30:41;;;;;;;38.17;21.95;;;;;;;;;;4936859;29;20040;-76
2022/10/09 00:33:27;;;;;;;36.63;22.23;;;;;;;;;;4936784;29;20051;-76
2022/10/09 00:36:19;;;;;;;38.10;22.10;;;;;;;;;;4936808;29;20052;-76
2022/10/09 00:39:05;;;;;;;32.88;21.13;;;;;;;;;;4937311;29;20048;-76
2022/10/09 00:41:50;;;;;;;33.80;20.80;;;;;;;;;;4943316;29;20055;-76
2022/10/09 00:44:53;;;;;;;36.75;23.52;;;;;;;;;;4936945;29;20388;-75
2022/10/09 00:47:43;;;;;;;50.88;27.70;;;;;;;;;;4936683;29;20040;-76
2022/10/09 00:50:54;;;;;;;39.22;23.08;;;;;;;;;;4936511;29;20047;-76
2022/10/09 00:53:39;;;;;;;32.80;18.80;;;;;;;;;;4942878;29;20051;-76
2022/10/09 00:56:26;;;;;;;30.88;17.65;;;;;;;;;;4936670;29;20402;-76
2022/10/09 00:59:11;;;;;;;27.80;16.25;;;;;;;;;;4936543;29;20051;-75
2022/10/09 01:01:56;;;;;;;38.05;19.52;;;;;;;;;;4936442;29;20039;-76
2022/10/09 01:04:42;;;;;;;31.95;19.50;;;;;;;;;;4936133;29;20044;-76
2022/10/09 01:07:53;;;;;;;27.63;18.13;;;;;;;;;;4936611;29;20048;-76
2022/10/09 01:10:49;;;;;;;31.25;17.20;;;;;;;;;;4943265;29;20056;-76
2022/10/09 01:13:41;;;;;;;29.60;17.85;;;;;;;;;;4942776;29;20051;-76
2022/10/09 01:16:32;;;;;;;30.98;17.83;;;;;;;;;;4937102;29;20044;-76
2022/10/09 01:20:05;;;;;;;28.15;15.70;;;;;;;;;;4936922;29;20043;-76
2022/10/09 01:23:17;;;;;;;23.88;14.15;;;;;;;;;;4932988;29;20391;-76
2022/10/09 01:26:15;;;;;;;22.50;12.25;;;;;;;;;;4940188;29;20047;-76
2022/10/09 01:29:12;;;;;;;24.52;12.88;;;;;;;;;;4940429;29;20051;-76
2022/10/09 01:31:59;;;;;;;21.38;11.95;;;;;;;;;;4940003;29;20490;-76
2022/10/09 01:34:46;;;;;;;16.23;10.73;;;;;;;;;;4946664;29;20497;-76
2022/10/09 01:37:34;;;;;;;17.88;10.55;;;;;;;;;;4940262;29;20394;-76
2022/10/09 01:40:21;;;;;;;19.88;10.50;;;;;;;;;;4939901;29;20059;-76
2022/10/09 01:43:07;;;;;;;16.73;10.10;;;;;;;;;;4939759;29;20040;-76
2022/10/09 01:46:26;;;;;;;25.92;10.35;;;;;;;;;;4939746;29;20055;-76
2022/10/09 01:49:30;;;;;;;19.85;10.18;;;;;;;;;;4939762;29;20055;-76
2022/10/09 01:52:40;;;;;;;16.95;10.38;;;;;;;;;;4946243;29;20040;-75
2022/10/09 01:55:53;;;;;;;21.52;11.77;;;;;;;;;;4939712;29;20047;-76
2022/10/09 01:58:45;;;;;;;17.17;11.38;;;;;;;;;;4940093;29;20047;-76
2022/10/09 02:01:35;;;;;;;19.55;11.80;;;;;;;;;;4940146;29;20051;-76
2022/10/09 02:04:21;;;;;;;21.50;11.27;;;;;;;;;;4939242;29;20047;-76
2022/10/09 02:07:07;;;;;;;15.88;10.90;;;;;;;;;;4939346;29;20052;-76
2022/10/09 02:09:52;;;;;;;20.90;10.45;;;;;;;;;;4939487;29;20073;-76
2022/10/09 02:12:42;;;;;;;16.65;9.65;;;;;;;;;;4939539;29;20486;-76
2022/10/09 02:15:44;;;;;;;26.48;13.35;;;;;;;;;;4939288;29;20044;-75
2022/10/09 02:18:39;;;;;;;18.13;11.57;;;;;;;;;;4939258;29;20052;-76
2022/10/09 02:21:39;;;;;;;15.68;10.73;;;;;;;;;;4939261;29;20047;-77
2022/10/09 02:24:25;;;;;;;17.60;9.93;;;;;;;;;;4945272;29;20394;-76
2022/10/09 02:27:11;;;;;;;15.68;10.63;;;;;;;;;;4939246;29;20052;-76
2022/10/09 02:29:59;;;;;;;17.20;10.75;;;;;;;;;;4945420;29;20490;-76
2022/10/09 02:32:44;;;;;;;16.52;10.38;;;;;;;;;;4944524;29;20047;-76
2022/10/09 02:35:30;;;;;;;21.00;10.00;;;;;;;;;;4945214;29;20043;-77
2022/10/09 02:38:15;;;;;;;20.67;11.20;;;;;;;;;;4938880;29;20401;-76
2022/10/09 02:41:02;;;;;;;20.10;12.38;;;;;;;;;;4939184;29;20043;-76
2022/10/09 02:43:48;;;;;;;18.75;11.82;;;;;;;;;;4938655;29;20036;-77
2022/10/09 02:46:34;;;;;;;24.02;12.98;;;;;;;;;;4938109;29;20410;-76
2022/10/09 02:49:19;;;;;;;20.17;11.77;;;;;;;;;;4938609;29;20052;-78
2022/10/09 02:52:05;;;;;;;18.98;12.38;;;;;;;;;;4938630;29;20048;-76
2022/10/09 02:54:50;;;;;;;21.65;13.00;;;;;;;;;;4938696;29;20354;-76
2022/10/09 02:57:35;;;;;;;18.63;12.60;;;;;;;;;;4937657;29;20042;-76
2022/10/09 03:00:20;;;;;;;20.90;13.77;;;;;;;;;;4943926;29;20043;-77
2022/10/09 03:03:06;;;;;;;22.55;13.85;;;;;;;;;;4938420;29;20485;-76
2022/10/09 03:06:03;;;;;;;22.52;13.15;;;;;;;;;;4944829;29;20047;-77
2022/10/09 03:08:50;;;;;;;23.75;13.98;;;;;;;;;;4938349;29;20048;-76
2022/10/09 03:11:35;;;;;;;33.05;16.52;;;;;;;;;;4938276;29;20048;-76
2022/10/09 03:14:21;;;;;;;74.90;32.53;;;;;;;;;;4938567;29;20055;-76
2022/10/09 03:17:07;;;;;;;219.68;88.15;;;;;;;;;;4938205;29;20043;-76
2022/10/09 03:19:52;;;;;;;194.98;78.53;;;;;;;;;;4944762;29;20490;-77
2022/10/09 03:22:38;;;;;;;102.90;40.85;;;;;;;;;;4938069;29;20047;-76
2022/10/09 03:25:24;;;;;;;51.80;25.15;;;;;;;;;;4943996;29;20044;-76
2022/10/09 03:28:09;;;;;;;30.35;15.35;;;;;;;;;;4938127;29;20478;-77
2022/10/09 03:30:55;;;;;;;24.50;12.82;;;;;;;;;;4938014;29;20039;-75
2022/10/09 03:33:41;;;;;;;18.50;11.82;;;;;;;;;;4938125;29;20390;-76
2022/10/09 03:36:26;;;;;;;18.63;10.93;;;;;;;;;;4944440;29;20043;-76
2022/10/09 03:39:11;;;;;;;14.02;9.25;;;;;;;;;;4937701;29;20047;-76
2022/10/09 03:41:57;;;;;;;21.75;10.20;;;;;;;;;;4943859;29;20060;-76
2022/10/09 03:44:42;;;;;;;10.05;7.70;;;;;;;;;;4937596;29;20047;-76
2022/10/09 03:47:28;;;;;;;10.88;7.53;;;;;;;;;;4937854;29;20051;-76
2022/10/09 03:50:14;;;;;;;12.45;8.65;;;;;;;;;;4937586;29;20047;-76
2022/10/09 03:52:59;;;;;;;11.68;8.02;;;;;;;;;;4937373;29;20044;-76
2022/10/09 03:55:45;;;;;;;10.68;8.30;;;;;;;;;;4937691;29;20043;-75
2022/10/09 03:58:30;;;;;;;11.68;8.20;;;;;;;;;;4937283;29;20514;-76
2022/10/09 04:01:16;;;;;;;13.85;9.00;;;;;;;;;;4937368;29;20048;-76
2022/10/09 04:04:02;;;;;;;13.77;8.82;;;;;;;;;;4943560;29;20044;-75
2022/10/09 04:06:47;;;;;;;13.85;8.82;;;;;;;;;;4937222;29;20043;-76
2022/10/09 04:09:33;;;;;;;12.70;8.00;;;;;;;;;;4937526;29;20047;-76
2022/10/09 04:12:18;;;;;;;23.90;14.75;;;;;;;;;;4937136;29;20047;-76
2022/10/09 04:15:05;;;;;;;18.52;12.43;;;;;;;;;;4937114;29;20056;-76
2022/10/09 04:17:49;;;;;;;18.00;11.63;;;;;;;;;;4937353;29;20043;-76
2022/10/09 04:20:34;;;;;;;19.48;12.30;;;;;;;;;;4937206;29;20043;-75
2022/10/09 04:23:22;;;;;;;16.75;11.70;;;;;;;;;;4943272;29;20043;-76
2022/10/09 04:26:10;;;;;;;18.70;11.18;;;;;;;;;;4943790;29;20484;-76
2022/10/09 04:28:55;;;;;;;17.65;10.90;;;;;;;;;;4936880;29;20052;-76
2022/10/09 04:31:41;;;;;;;17.10;10.82;;;;;;;;;;4942550;29;20047;-76
2022/10/09 04:34:27;;;;;;;14.82;9.68;;;;;;;;;;4936682;29;20043;-76
2022/10/09 04:37:13;;;;;;;17.45;10.30;;;;;;;;;;4937049;29;20047;-76
2022/10/09 04:39:58;;;;;;;19.33;11.18;;;;;;;;;;4937072;29;20048;-75
2022/10/09 04:42:44;;;;;;;21.33;12.45;;;;;;;;;;4936826;29;20056;-76
2022/10/09 04:45:29;;;;;;;20.55;13.20;;;;;;;;;;4936617;29;20040;-76
2022/10/09 04:48:15;;;;;;;24.35;15.52;;;;;;;;;;4936462;29;20051;-76
2022/10/09 04:51:03;;;;;;;28.45;18.60;;;;;;;;;;4936167;29;20044;-76
2022/10/09 04:53:48;;;;;;;27.38;15.98;;;;;;;;;;4936022;29;20044;-77
2022/10/09 04:56:34;;;;;;;35.30;18.70;;;;;;;;;;4936047;29;20047;-75
2022/10/09 04:59:19;;;;;;;30.48;18.30;;;;;;;;;;4936456;29;20044;-76
2022/10/09 05:02:05;;;;;;;28.23;17.98;;;;;;;;;;4936502;29;20047;-76
2022/10/09 05:04:50;;;;;;;31.25;17.52;;;;;;;;;;4936148;29;20043;-76
2022/10/09 05:07:37;;;;;;;25.40;17.02;;;;;;;;;;4936569;29;20043;-76
2022/10/09 05:10:23;;;;;;;29.65;17.38;;;;;;;;;;4936267;29;20043;-75
2022/10/09 05:13:08;;;;;;;26.40;16.67;;;;;;;;;;4936379;29;20047;-76
2022/10/09 05:15:54;;;;;;;28.13;15.82;;;;;;;;;;4936382;29;20056;-76
2022/10/09 05:18:48;;;;;;;24.13;14.70;;;;;;;;;;4942561;29;20035;-76
2022/10/09 05:21:35;;;;;;;30.40;15.40;;;;;;;;;;4935885;29;20043;-76
2022/10/09 05:24:21;;;;;;;30.42;19.95;;;;;;;;;;4935945;29;20482;-77
2022/10/09 05:27:07;;;;;;;28.20;17.38;;;;;;;;;;4942546;29;20445;-75
2022/10/09 05:29:53;;;;;;;34.72;20.40;;;;;;;;;;4935752;29;20490;-75
2022/10/09 05:32:38;;;;;;;34.42;21.35;;;;;;;;;;4935944;29;20059;-75
2022/10/09 05:35:24;;;;;;;29.90;18.50;;;;;;;;;;4942480;29;20489;-75
2022/10/09 05:38:09;;;;;;;31.80;16.17;;;;;;;;;;4935921;29;20043;-76
2022/10/09 05:40:58;;;;;;;31.80;20.23;;;;;;;;;;4936345;29;20047;-77
2022/10/09 05:43:45;;;;;;;39.40;25.08;;;;;;;;;;4942417;29;20048;-77
2022/10/09 05:46:30;;;;;;;27.20;18.17;;;;;;;;;;4942367;29;20048;-77
2022/10/09 05:49:16;;;;;;;25.52;15.50;;;;;;;;;;4935804;29;20486;-77
2022/10/09 05:52:01;;;;;;;22.60;13.65;;;;;;;;;;4941953;29;20052;-76
2022/10/09 05:54:46;;;;;;;23.33;14.15;;;;;;;;;;4935901;29;20403;-76
2022/10/09 05:57:32;;;;;;;20.50;14.07;;;;;;;;;;4935723;29;20036;-76
2022/10/09 06:00:17;;;;;;;30.98;18.20;;;;;;;;;;4942184;29;20502;-76
2022/10/09 06:03:03;;;;;;;20.67;14.05;;;;;;;;;;4922000;29;20047;-76
2022/10/09 06:05:47;;;;;;;27.70;15.30;;;;;;;;;;4936935;29;20044;-76
2022/10/09 06:08:36;;;;;;;31.77;17.63;;;;;;;;;;4945807;29;20047;-76
2022/10/09 06:11:30;;;;;;;30.23;16.33;;;;;;;;;;4945038;29;20039;-76
2022/10/09 06:14:15;;;;;;;22.17;14.27;;;;;;;;;;4938752;29;20055;-77
2022/10/09 06:17:01;;;;;;;20.48;12.77;;;;;;;;;;4945868;29;20048;-76
2022/10/09 06:19:47;;;;;;;11.52;7.85;;;;;;;;;;4939176;29;20048;-76
2022/10/09 06:22:32;;;;;;;15.40;9.30;;;;;;;;;;4939117;29;20043;-76
2022/10/09 06:25:17;;;;;;;13.95;9.23;;;;;;;;;;4938824;29;20039;-76
2022/10/09 06:28:02;;;;;;;14.75;8.30;;;;;;;;;;4945175;29;20044;-77
2022/10/09 06:30:48;;;;;;;14.38;8.85;;;;;;;;;;4939270;29;20393;-76
2022/10/09 06:33:35;;;;;;;14.63;9.40;;;;;;;;;;4938690;29;20039;-76
2022/10/09 06:36:24;;;;;;;16.63;10.52;;;;;;;;;;4945071;29;20055;-76
2022/10/09 06:39:10;;;;;;;17.23;10.73;;;;;;;;;;4944847;29;20044;-76
2022/10/09 06:41:55;;;;;;;17.83;10.75;;;;;;;;;;4939009;29;20043;-76
2022/10/09 06:44:58;;;;;;;18.15;11.68;;;;;;;;;;4943584;29;20047;-76
2022/10/09 06:47:44;;;;;;;19.35;12.13;;;;;;;;;;4944898;29;20051;-76
2022/10/09 06:50:30;;;;;;;25.90;13.75;;;;;;;;;;4938178;29;20040;-76
2022/10/09 06:53:15;;;;;;;23.33;14.05;;;;;;;;;;4938811;29;20425;-76
2022/10/09 06:56:01;;;;;;;23.42;14.50;;;;;;;;;;4938815;29;20043;-76
2022/10/09 06:58:47;;;;;;;25.55;13.52;;;;;;;;;;4944749;29;20043;-76
2022/10/09 07:01:33;;;;;;;18.05;12.90;;;;;;;;;;4930425;29;20044;-76
2022/10/09 07:04:20;;;;;;;22.08;13.43;;;;;;;;;;4938109;29;20490;-76
2022/10/09 07:07:05;;;;;;;17.25;11.70;;;;;;;;;;4938270;29;20445;-76
2022/10/09 07:09:53;;;;;;;16.35;9.95;;;;;;;;;;4938268;29;20059;-75
2022/10/09 07:12:38;;;;;;;20.38;10.68;;;;;;;;;;4944402;29;20055;-76
2022/10/09 07:15:24;;;;;;;24.40;12.18;;;;;;;;;;4938033;29;20055;-76
2022/10/09 07:18:09;;;;;;;23.33;14.10;;;;;;;;;;4937367;29;20486;-76
2022/10/09 07:20:55;;;;;;;23.27;15.38;;;;;;;;;;4938007;29;20051;-76
2022/10/09 07:23:44;;;;;;;44.67;20.35;;;;;;;;;;4937999;29;20036;-75
2022/10/09 07:26:33;;;;;;;49.97;26.60;;;;;;;;;;4937791;29;20059;-76
2022/10/09 07:29:18;;;;;;;35.28;15.65;;;;;;;;;;4943722;29;20060;-76
2022/10/09 07:32:03;;;;;;;30.52;16.85;;;;;;;;;;4937353;29;20060;-75
2022/10/09 07:34:49;;;;;;;25.70;14.70;;;;;;;;;;4944117;29;20055;-75
2022/10/09 07:37:34;;;;;;;22.75;12.55;;;;;;;;;;4943905;29;20043;-74
2022/10/09 07:40:20;;;;;;;24.48;11.52;;;;;;;;;;4943860;29;20474;-74
2022/10/09 07:43:06;;;;;;;29.83;13.55;;;;;;;;;;4943967;29;20044;-74
2022/10/09 07:45:51;;;;;;;24.35;13.43;;;;;;;;;;4937095;29;20494;-74
2022/10/09 07:48:37;;;;;;;22.08;13.00;;;;;;;;;;4937400;29;20051;-74
2022/10/09 07:51:25;;;;;;;26.65;13.65;;;;;;;;;;4937192;29;20047;-74
2022/10/09 07:54:10;;;;;;;32.80;12.60;;;;;;;;;;4937303;29;20490;-74
2022/10/09 07:56:56;;;;;;;25.20;12.40;;;;;;;;;;4943040;29;20486;-74
2022/10/09 07:59:41;;;;;;;23.20;12.52;;;;;;;;;;4936886;29;20043;-75
2022/10/09 08:02:27;;;;;;;21.55;10.77;;;;;;;;;;4936858;29;20043;-75
2022/10/09 08:05:12;;;;;;;13.43;9.18;;;;;;;;;;4936789;29;20043;-74
2022/10/09 08:07:58;;;;;;;14.88;9.30;;;;;;;;;;4937035;29;20147;-75
2022/10/09 08:10:44;;;;;;;13.55;9.68;;;;;;;;;;4936622;29;20040;-74
2022/10/09 08:13:29;;;;;;;17.65;9.68;;;;;;;;;;4936345;29;20048;-74
2022/10/09 08:16:16;;;;;;;18.83;11.23;;;;;;;;;;4937214;29;20056;-74
2022/10/09 08:19:02;;;;;;;14.23;9.98;;;;;;;;;;4936705;29;20039;-75
2022/10/09 08:21:47;;;;;;;16.70;9.90;;;;;;;;;;4936567;29;20036;-74
2022/10/09 08:24:34;;;;;;;16.98;10.30;;;;;;;;;;4936607;29;20043;-74
2022/10/09 08:27:19;;;;;;;17.80;12.95;;;;;;;;;;4936582;29;20491;-74
2022/10/09 08:30:05;;;;;;;18.55;12.88;;;;;;;;;;4935687;29;20055;-74
2022/10/09 08:32:50;;;;;;;21.10;13.77;;;;;;;;;;4936703;29;20052;-74
2022/10/09 08:35:36;;;;;;;25.63;15.85;;;;;;;;;;4936323;29;20059;-73
2022/10/09 08:38:21;;;;;;;20.85;13.02;;;;;;;;;;4935869;29;20048;-73
2022/10/09 08:41:13;;;;;;;18.65;12.05;;;;;;;;;;4936575;29;20051;-74
2022/10/09 08:44:36;;;;;;;17.65;12.82;;;;;;;;;;4934498;29;20736;-74
2022/10/09 08:47:32;;;;;;;18.63;12.10;;;;;;;;;;4942675;29;20381;-74
2022/10/09 08:50:21;;;;;;;24.05;13.23;;;;;;;;;;4936082;29;20047;-73
2022/10/09 08:53:13;;;;;;;19.27;11.60;;;;;;;;;;4935625;29;20055;-73
2022/10/09 08:56:02;;;;;;;20.65;11.85;;;;;;;;;;4935811;29;20044;-73
2022/10/09 08:58:47;;;;;;;22.70;12.55;;;;;;;;;;4935879;29;20417;-73
2022/10/09 09:02:02;;;;;;;15.55;10.88;;;;;;;;;;4936134;29;20047;-74
2022/10/09 09:04:56;;;;;;;18.03;11.23;;;;;;;;;;4941893;29;20051;-75
2022/10/09 09:07:54;;;;;;;;;;;;;;;;;;4936100;29;20068;-74
2022/10/09 09:10:56;;;;;;;17.98;11.60;;;;;;;;;;4936050;29;20246;-74
2022/10/09 09:14:11;;;;;;;19.17;12.55;;;;;;;;;;4935663;29;20481;-74
2022/10/09 09:17:10;;;;;;;21.27;13.50;;;;;;;;;;4935718;29;20051;-73
2022/10/09 09:20:11;;;;;;;18.40;13.82;;;;;;;;;;4935913;29;20043;-76
2022/10/09 09:23:00;;;;;;;17.58;12.55;;;;;;;;;;4935514;29;20051;-73
2022/10/09 09:25:46;;;;;;;18.02;12.52;;;;;;;;;;4935261;29;20060;-74
2022/10/09 09:28:34;;;;;;;20.05;14.23;;;;;;;;;;4942055;29;20402;-76
2022/10/09 09:31:26;;;;;;;21.80;14.80;;;;;;;;;;4936047;29;20044;-75
2022/10/09 09:34:41;;;;;;;36.10;20.23;;;;;;;;;;4935806;29;20490;-73
2022/10/09 09:37:26;;;;;;;21.08;14.07;;;;;;;;;;4942159;29;20444;-74
2022/10/09 09:40:14;;;;;;;18.75;14.20;;;;;;;;;;4942497;29;20051;-73
2022/10/09 09:43:00;;;;;;;25.73;15.02;;;;;;;;;;4939275;29;20040;-73
2022/10/09 09:45:48;;;;;;;23.70;16.35;;;;;;;;;;4945912;29;20048;-74
2022/10/09 09:48:39;;;;;;;20.38;13.82;;;;;;;;;;4939556;29;20047;-74
2022/10/09 09:51:28;;;;;;;22.77;16.08;;;;;;;;;;4939009;29;20051;-74
2022/10/09 09:54:21;;;;;;;23.92;15.23;;;;;;;;;;4939034;29;20065;-74
2022/10/09 09:57:10;;;;;;;;;;;;;;;;;;4939371;29;20078;-74
2022/10/09 10:00:06;;;;;;;26.40;16.05;;;;;;;;;;4939314;29;20265;-73
2022/10/09 10:03:04;;;;;;;22.95;14.05;;;;;;;;;;4937911;29;20044;-74
2022/10/09 10:05:50;;;;;;;22.58;14.70;;;;;;;;;;4937313;29;20401;-74
2022/10/09 10:08:36;;;;;;;20.73;16.27;;;;;;;;;;4944341;29;20051;-75
2022/10/09 10:11:21;;;;;;;18.55;12.63;;;;;;;;;;4945266;29;20043;-75
2022/10/09 10:14:12;;;;;;;21.95;15.55;;;;;;;;;;4945436;29;20047;-74
2022/10/09 10:16:59;;;;;;;21.35;14.85;;;;;;;;;;4945657;29;20043;-74
2022/10/09 10:19:49;;;;;;;25.88;15.63;;;;;;;;;;4938866;29;20494;-74
2022/10/09 10:22:34;;;;;;;21.67;14.48;;;;;;;;;;4938547;29;20494;-74
2022/10/09 10:25:24;;;;;;;22.05;14.65;;;;;;;;;;4938028;29;20056;-74
2022/10/09 10:28:16;;;;;;;22.77;15.98;;;;;;;;;;4938840;29;20506;-75
2022/10/09 10:31:06;;;;;;;37.58;16.65;;;;;;;;;;4937854;29;20044;-75
2022/10/09 10:33:55;;;;;;;24.38;14.95;;;;;;;;;;4945376;29;20051;-77
2022/10/09 10:36:39;;;;;;;20.77;14.82;;;;;;;;;;4945025;29;20048;-74
2022/10/09 10:39:39;;;;;;;24.27;15.90;;;;;;;;;;4938439;29;20048;-75
2022/10/09 10:42:53;;;;;;;19.88;13.75;;;;;;;;;;4938616;29;20378;-74
2022/10/09 10:45:41;;;;;;;22.60;14.15;;;;;;;;;;4938083;29;20051;-75
2022/10/09 10:48:36;;;;;;;21.05;13.95;;;;;;;;;;4939015;29;20390;-74
2022/10/09 10:51:24;;;;;;;;;;;;;;;;;;4937865;29;20044;-73
2022/10/09 10:54:39;;;;;;;19.45;15.20;;;;;;;;;;4938119;29;19918;-74
2022/10/09 10:57:59;;;;;;;18.80;14.65;;;;;;;;;;4938484;29;20413;-75
2022/10/09 11:01:10;;;;;;;17.90;14.05;;;;;;;;;;4931968;29;20502;-77
2022/10/09 11:04:34;;;;;;;19.80;13.35;;;;;;;;;;4938835;29;20044;-76
2022/10/09 11:07:47;;;;;;;16.90;10.80;;;;;;;;;;4944598;29;20044;-74
2022/10/09 11:10:36;;;;;;;18.75;12.65;;;;;;;;;;4944733;29;20490;-73
2022/10/09 11:13:48;;;;;;;17.48;12.13;;;;;;;;;;4938198;29;20402;-75
2022/10/09 11:16:40;;;;;;;21.38;14.18;;;;;;;;;;4944502;29;20399;-74
2022/10/09 11:19:28;;;;;;;15.13;10.23;;;;;;;;;;4943273;29;20064;-74
2022/10/09 11:22:14;;;;;;;20.63;12.48;;;;;;;;;;4937952;29;20052;-74
2022/10/09 11:25:34;;;;;;;22.20;12.63;;;;;;;;;;4937911;29;20414;-74
2022/10/09 11:28:33;;;;;;;17.98;12.18;;;;;;;;;;4913925;29;20052;-74
2022/10/09 11:31:27;;;;;;;17.98;12.48;;;;;;;;;;4937018;29;20422;-74
2022/10/09 11:34:20;;;;;;;16.40;10.95;;;;;;;;;;4937291;29;20044;-74
2022/10/09 11:37:11;;;;;;;17.42;10.48;;;;;;;;;;4937840;29;20056;-75
2022/10/09 11:40:12;;;;;;;12.55;9.95;;;;;;;;;;4937428;29;20063;-74
2022/10/09 11:43:16;;;;;;;10.63;9.02;;;;;;;;;;4937281;29;20052;-73
2022/10/09 11:46:08;;;;;;;14.52;10.82;;;;;;;;;;4937152;29;20047;-73
2022/10/09 11:49:38;;;;;;;17.10;11.98;;;;;;;;;;4937302;29;20052;-73
2022/10/09 11:52:38;;;;;;;16.10;12.93;;;;;;;;;;4924909;29;20048;-74
2022/10/09 11:55:27;;;;;;;12.70;10.48;;;;;;;;;;4918293;29;20498;-75
2022/10/09 11:58:18;;;;;;;20.15;12.18;;;;;;;;;;4918487;29;20509;-74
2022/10/09 12:01:12;;;;;;;12.82;7.30;;;;;;;;;;4918664;29;20048;-73
2022/10/09 12:04:01;;;;;;;11.65;6.38;;;;;;;;;;4917132;29;20052;-75
2022/10/09 12:06:59;;;;;;;11.00;8.77;;;;;;;;;;4917827;29;20036;-75
2022/10/09 12:09:47;;;;;;;16.70;8.40;;;;;;;;;;4910014;29;20052;-74
2022/10/09 12:12:33;;;;;;;14.30;8.52;;;;;;;;;;4924479;29;20044;-74
2022/10/09 12:15:26;;;;;;;13.50;8.77;;;;;;;;;;4917973;29;20048;-74
2022/10/09 12:18:23;;;;;;;14.65;9.07;;;;;;;;;;4918002;29;20398;-73
2022/10/09 12:21:28;;;;;;;13.00;8.75;;;;;;;;;;4918622;29;20048;-73
2022/10/09 12:24:22;;;;;;;15.20;7.63;;;;;;;;;;4924014;29;20048;-74
2022/10/09 12:27:22;;;;;;;8.90;7.20;;;;;;;;;;4923815;29;20051;-73
2022/10/09 12:30:11;;;;;;;14.45;7.75;;;;;;;;;;4923983;29;20048;-74
2022/10/09 12:33:03;;;;;;;10.73;8.65;;;;;;;;;;4917935;29;20052;-73
2022/10/09 12:36:09;;;;;;;16.30;8.65;;;;;;;;;;4917649;29;20044;-75
2022/10/09 12:38:56;;;;;;;16.52;9.27;;;;;;;;;;4918027;29;20043;-73
2022/10/09 12:41:44;;;;;;;13.10;8.82;;;;;;;;;;4917705;29;20044;-73
2022/10/09 12:44:33;;;;;;;15.93;9.43;;;;;;;;;;4923396;29;20477;-73
2022/10/09 12:47:25;;;;;;;12.52;9.82;;;;;;;;;;4923279;29;20128;-74
2022/10/09 12:50:11;;;;;;;11.93;8.88;;;;;;;;;;4924366;29;20048;-73
2022/10/09 12:53:06;;;;;;;14.60;9.23;;;;;;;;;;4936593;29;20059;-73
2022/10/09 12:55:59;;;;;;;12.65;8.75;;;;;;;;;;4936310;29;20406;-73
2022/10/09 12:58:44;;;;;;;13.35;10.23;;;;;;;;;;4941750;29;20047;-73
2022/10/09 13:01:32;;;;;;;16.17;9.43;;;;;;;;;;4936477;29;20047;-74
2022/10/09 13:04:24;;;;;;;13.00;8.65;;;;;;;;;;4935511;29;20039;-75
2022/10/09 13:07:20;;;;;;;12.02;8.77;;;;;;;;;;4935693;29;20048;-74
2022/10/09 13:10:18;;;;;;;12.18;9.32;;;;;;;;;;4936323;29;20044;-73
2022/10/09 13:13:03;;;;;;;16.33;9.77;;;;;;;;;;4942368;29;20402;-73
2022/10/09 13:16:08;;;;;;;12.40;8.60;;;;;;;;;;4935565;29;20048;-74
2022/10/09 13:19:01;;;;;;;;;;;;;;;;;;4932886;29;20039;-72
2022/10/09 13:21:45;;;;;;;12.07;7.60;;;;;;;;;;4936283;29;19922;-74
2022/10/09 13:24:31;;;;;;;13.95;8.52;;;;;;;;;;4936076;29;20048;-75
2022/10/09 13:27:18;;;;;;;11.05;8.40;;;;;;;;;;4935717;29;20047;-75
2022/10/09 13:30:05;;;;;;;10.40;7.72;;;;;;;;;;4942405;29;20044;-74
2022/10/09 13:32:50;;;;;;;10.75;7.80;;;;;;;;;;4935982;29;20044;-75
2022/10/09 13:35:36;;;;;;;15.90;8.75;;;;;;;;;;4942194;29;20481;-74
2022/10/09 13:38:22;;;;;;;12.52;8.10;;;;;;;;;;4936009;29;20486;-74
2022/10/09 13:41:20;;;;;;;9.95;7.88;;;;;;;;;;4935780;29;20047;-73
2022/10/09 13:44:06;;;;;;;9.77;7.78;;;;;;;;;;4935938;29;20051;-73
2022/10/09 13:46:51;;;;;;;12.60;8.02;;;;;;;;;;4935674;29;20055;-74
2022/10/09 13:49:37;;;;;;;14.82;7.97;;;;;;;;;;4936348;29;20048;-74
2022/10/09 13:52:22;;;;;;;12.18;8.18;;;;;;;;;;4935557;29;20036;-74
2022/10/09 13:55:08;;;;;;;13.10;8.52;;;;;;;;;;4935523;29;20402;-73
2022/10/09 13:57:54;;;;;;;11.32;8.32;;;;;;;;;;4935910;29;20056;-73
2022/10/09 14:00:39;;;;;;;15.25;7.90;;;;;;;;;;4935812;29;20378;-73
2022/10/09 14:03:26;;;;;;;13.43;9.15;;;;;;;;;;4935916;29;20481;-74
2022/10/09 14:06:11;;;;;;;13.10;8.63;;;;;;;;;;4935713;29;20040;-74
2022/10/09 14:08:57;;;;;;;11.68;6.90;;;;;;;;;;4935570;29;20052;-73
2022/10/09 14:11:43;;;;;;;15.30;8.77;;;;;;;;;;4935683;29;20048;-73
2022/10/09 14:14:28;;;;;;;15.63;8.05;;;;;;;;;;4941764;29;20040;-75
2022/10/09 14:17:13;;;;;;;14.50;8.88;;;;;;;;;;4935751;29;20052;-74
2022/10/09 14:19:59;;;;;;;10.55;7.65;;;;;;;;;;4936076;29;20044;-74
2022/10/09 14:22:45;;;;;;;13.10;9.57;;;;;;;;;;4942328;29;20043;-74
2022/10/09 14:25:33;;;;;;;16.63;10.90;;;;;;;;;;4936164;29;20044;-74
2022/10/09 14:28:19;;;;;;;12.13;9.00;;;;;;;;;;4943620;29;20043;-74
2022/10/09 14:31:06;;;;;;;18.48;10.10;;;;;;;;;;4945598;29;20055;-75
2022/10/09 14:33:55;;;;;;;12.90;8.73;;;;;;;;;;4938678;29;20047;-74
2022/10/09 14:36:40;;;;;;;20.95;11.52;;;;;;;;;;4938615;29;20051;-73
2022/10/09 14:39:26;;;;;;;24.60;12.27;;;;;;;;;;4938720;29;20047;-74
2022/10/09 14:42:12;;;;;;;26.50;15.07;;;;;;;;;;4938679;29;20052;-74
2022/10/09 14:44:57;;;;;;;25.52;13.77;;;;;;;;;;4938227;29;20048;-73
2022/10/09 14:47:43;;;;;;;19.73;12.65;;;;;;;;;;4938673;29;20397;-73
2022/10/09 14:50:29;;;;;;;15.13;10.32;;;;;;;;;;4938204;29;20052;-74
2022/10/09 14:53:14;;;;;;;23.05;10.88;;;;;;;;;;4938327;29;20052;-75
2022/10/09 14:56:02;;;;;;;18.35;10.73;;;;;;;;;;4938414;29;20044;-75
2022/10/09 14:58:47;;;;;;;14.93;10.43;;;;;;;;;;4944679;29;20055;-75
2022/10/09 15:01:33;;;;;;;24.35;12.40;;;;;;;;;;4938328;29;20402;-73
2022/10/09 15:04:18;;;;;;;19.60;12.20;;;;;;;;;;4944720;29;20036;-74
2022/10/09 15:07:04;;;;;;;16.25;11.80;;;;;;;;;;4937974;29;20055;-74
2022/10/09 15:09:49;;;;;;;22.17;14.07;;;;;;;;;;4938116;29;20044;-74
2022/10/09 15:12:35;;;;;;;18.13;13.45;;;;;;;;;;4938130;29;20043;-73
2022/10/09 15:15:21;;;;;;;22.23;13.35;;;;;;;;;;4944491;29;20056;-73
2022/10/09 15:18:07;;;;;;;20.10;13.23;;;;;;;;;;4937878;29;20044;-74
2022/10/09 15:20:53;;;;;;;19.17;13.45;;;;;;;;;;4937970;29;20053;-74
2022/10/09 15:23:39;;;;;;;17.35;12.80;;;;;;;;;;4938059;29;20051;-73
2022/10/09 15:26:26;;;;;;;19.88;15.23;;;;;;;;;;4937693;29;20048;-74
2022/10/09 15:29:12;;;;;;;19.65;14.05;;;;;;;;;;4944211;29;20043;-74
2022/10/09 15:31:58;;;;;;;22.65;16.25;;;;;;;;;;4943182;29;20048;-72
2022/10/09 15:34:43;;;;;;;28.52;15.68;;;;;;;;;;4937591;29;20044;-73
2022/10/09 15:37:28;;;;;;;27.90;16.13;;;;;;;;;;4937952;29;20043;-73
2022/10/09 15:40:14;;;;;;;28.60;16.70;;;;;;;;;;4937500;29;20056;-75
2022/10/09 15:43:00;;;;;;;31.15;18.15;;;;;;;;;;4937685;29;20048;-74
2022/10/09 15:45:46;;;;;;;33.63;18.42;;;;;;;;;;4937160;29;20040;-74
2022/10/09 15:48:31;;;;;;;25.52;17.67;;;;;;;;;;4937746;29;20044;-73
2022/10/09 15:51:18;;;;;;;27.98;19.38;;;;;;;;;;4936971;29;20044;-73
2022/10/09 15:54:04;;;;;;;26.13;18.80;;;;;;;;;;4937305;29;20482;-73
2022/10/09 15:56:49;;;;;;;25.08;19.00;;;;;;;;;;4943678;29;20047;-72
2022/10/09 15:59:36;;;;;;;27.30;18.92;;;;;;;;;;4936928;29;20040;-73
2022/10/09 16:02:22;;;;;;;29.38;18.02;;;;;;;;;;4943445;29;20401;-72
2022/10/09 16:05:08;;;;;;;25.67;18.77;;;;;;;;;;4936148;29;20059;-72
2022/10/09 16:07:53;;;;;;;25.60;17.77;;;;;;;;;;4936508;29;20044;-73
2022/10/09 16:10:43;;;;;;;37.15;19.27;;;;;;;;;;4937271;29;20039;-73
2022/10/09 16:13:29;;;;;;;40.75;23.58;;;;;;;;;;4943273;29;20052;-73
2022/10/09 16:16:18;;;;;;;43.17;28.63;;;;;;;;;;4936695;29;20067;-73
2022/10/09 16:19:03;;;;;;;60.08;34.15;;;;;;;;;;4942783;29;20051;-73
2022/10/09 16:21:50;;;;;;;39.92;26.92;;;;;;;;;;4936812;29;20043;-73
2022/10/09 16:24:35;;;;;;;47.20;31.35;;;;;;;;;;4942362;29;20051;-73
2022/10/09 16:27:20;;;;;;;37.72;24.20;;;;;;;;;;4936369;29;20043;-73
2022/10/09 16:30:07;;;;;;;104.68;60.58;;;;;;;;;;4943040;29;20048;-74